sensor_id;sensor_type;location;lat;lon;timestamp;temperature;humidity
9730;DHT22;4904;49.152;11.004;2023-02-10T00:01:37;-3.10;99.90
9730;DHT22;4904;49.152;11.004;2023-02-10T00:04:04;-3.10;99.90
9730;DHT22;4904;49.152;11.004;2023-02-10T00:06:31;-3.10;99.90
9730;DHT22;4904;49.152;11.004;2023-02-10T00:08:59;-3.20;99.90
9730;DHT22;4904;49.152;11.004;2023-02-10T00:11:28;-3.20;99.90
9730;DHT22;4904;49.152;11.004;2023-02-10T00:14:16;-3.20;99.90
9730;DHT22;4904;49.152;11.004;2023-02-10T00:16:43;-3.20;99.90
9730;DHT22;4904;49.152;11.004;2023-02-10T00:19:10;-3.20;99.90
9730;DHT22;4904;49.152;11.004;2023-02-10T00:21:37;-3.30;99.90
9730;DHT22;4904;49.152;11.004;2023-02-10T00:24:04;-3.30;99.90
9730;DHT22;4904;49.152;11.004;2023-02-10T00:26:31;-3.30;99.90
9730;DHT22;4904;49.152;11.004;2023-02-10T00:28:58;-3.30;99.90
9730;DHT22;4904;49.152;11.004;2023-02-10T00:31:26;-3.30;99.90
9730;DHT22;4904;49.152;11.004;2023-02-10T00:33:53;-3.20;99.90
9730;DHT22;4904;49.152;11.004;2023-02-10T00:36:21;-3.30;99.90
9730;DHT22;4904;49.152;11.004;2023-02-10T00:38:50;-3.30;99.90
9730;DHT22;4904;49.152;11.004;2023-02-10T00:41:20;-3.30;99.90
9730;DHT22;4904;49.152;11.004;2023-02-10T00:43:47;-3.40;99.90
9730;DHT22;4904;49.152;11.004;2023-02-10T00:46:15;-3.50;99.90
9730;DHT22;4904;49.152;11.004;2023-02-10T00:48:44;-3.50;99.90
9730;DHT22;4904;49.152;11.004;2023-02-10T00:51:12;-3.40;99.90
9730;DHT22;4904;49.152;11.004;2023-02-10T00:53:39;-3.50;99.90
9730;DHT22;4904;49.152;11.004;2023-02-10T00:56:07;-3.50;99.90
9730;DHT22;4904;49.152;11.004;2023-02-10T00:58:34;-3.40;99.90
9730;DHT22;4904;49.152;11.004;2023-02-10T01:01:01;-3.50;99.90
9730;DHT22;4904;49.152;11.004;2023-02-10T01:03:28;-3.80;99.90
9730;DHT22;4904;49.152;11.004;2023-02-10T01:05:56;-3.70;99.90
9730;DHT22;4904;49.152;11.004;2023-02-10T01:08:23;-3.60;99.90
9730;DHT22;4904;49.152;11.004;2023-02-10T01:10:58;-3.60;99.90
9730;DHT22;4904;49.152;11.004;2023-02-10T01:13:25;-3.50;99.90
9730;DHT22;4904;49.152;11.004;2023-02-10T01:15:52;-3.50;99.90
9730;DHT22;4904;49.152;11.004;2023-02-10T01:18:19;-3.50;99.90
9730;DHT22;4904;49.152;11.004;2023-02-10T01:20:46;-3.50;99.90
9730;DHT22;4904;49.152;11.004;2023-02-10T01:23:14;-3.50;99.90
9730;DHT22;4904;49.152;11.004;2023-02-10T01:25:41;-3.50;99.90
9730;DHT22;4904;49.152;11.004;2023-02-10T01:28:08;-3.50;99.90
9730;DHT22;4904;49.152;11.004;2023-02-10T01:30:35;-3.60;99.90
9730;DHT22;4904;49.152;11.004;2023-02-10T01:33:03;-3.60;99.90
9730;DHT22;4904;49.152;11.004;2023-02-10T01:35:30;-3.60;99.90
9730;DHT22;4904;49.152;11.004;2023-02-10T01:37:57;-3.70;99.90
9730;DHT22;4904;49.152;11.004;2023-02-10T01:40:26;-3.70;99.90
9730;DHT22;4904;49.152;11.004;2023-02-10T01:42:53;-3.70;99.90
9730;DHT22;4904;49.152;11.004;2023-02-10T01:45:24;-3.80;99.90
9730;DHT22;4904;49.152;11.004;2023-02-10T01:47:54;-3.70;99.90
9730;DHT22;4904;49.152;11.004;2023-02-10T01:50:23;-3.80;99.90
9730;DHT22;4904;49.152;11.004;2023-02-10T01:52:51;-3.80;99.90
9730;DHT22;4904;49.152;11.004;2023-02-10T01:55:20;-3.80;99.90
9730;DHT22;4904;49.152;11.004;2023-02-10T01:57:50;-3.80;99.90
9730;DHT22;4904;49.152;11.004;2023-02-10T02:00:20;-3.90;99.90
9730;DHT22;4904;49.152;11.004;2023-02-10T02:02:48;-3.90;99.90
9730;DHT22;4904;49.152;11.004;2023-02-10T02:05:22;-3.90;99.90
9730;DHT22;4904;49.152;11.004;2023-02-10T02:07:53;-3.90;99.90
9730;DHT22;4904;49.152;11.004;2023-02-10T02:10:23;-3.90;99.90
9730;DHT22;4904;49.152;11.004;2023-02-10T02:12:56;-3.90;99.90
9730;DHT22;4904;49.152;11.004;2023-02-10T02:15:31;-3.80;99.90
9730;DHT22;4904;49.152;11.004;2023-02-10T02:18:05;-3.80;99.90
9730;DHT22;4904;49.152;11.004;2023-02-10T02:27:01;-3.90;99.90
9730;DHT22;4904;49.152;11.004;2023-02-10T02:30:00;-3.90;99.90
9730;DHT22;4904;49.152;11.004;2023-02-10T02:32:33;-4.00;99.90
9730;DHT22;4904;49.152;11.004;2023-02-10T02:35:05;-4.00;99.90
9730;DHT22;4904;49.152;11.004;2023-02-10T02:37:35;-4.10;99.90
9730;DHT22;4904;49.152;11.004;2023-02-10T02:40:03;-4.20;99.90
9730;DHT22;4904;49.152;11.004;2023-02-10T02:42:31;-4.30;99.90
9730;DHT22;4904;49.152;11.004;2023-02-10T02:45:00;-4.30;99.90
9730;DHT22;4904;49.152;11.004;2023-02-10T02:47:41;-4.40;99.90
9730;DHT22;4904;49.152;11.004;2023-02-10T02:50:20;-4.30;99.90
9730;DHT22;4904;49.152;11.004;2023-02-10T02:53:03;-4.40;99.90
9730;DHT22;4904;49.152;11.004;2023-02-10T02:55:40;-4.40;99.90
9730;DHT22;4904;49.152;11.004;2023-02-10T02:58:15;-4.40;99.90
9730;DHT22;4904;49.152;11.004;2023-02-10T03:00:44;-4.40;99.90
9730;DHT22;4904;49.152;11.004;2023-02-10T03:03:13;-4.40;99.90
9730;DHT22;4904;49.152;11.004;2023-02-10T03:05:40;-4.50;99.90
9730;DHT22;4904;49.152;11.004;2023-02-10T03:08:07;-4.60;99.90
9730;DHT22;4904;49.152;11.004;2023-02-10T03:10:34;-4.70;99.90
9730;DHT22;4904;49.152;11.004;2023-02-10T03:13:01;-4.70;99.90
9730;DHT22;4904;49.152;11.004;2023-02-10T03:15:28;-4.70;99.90
9730;DHT22;4904;49.152;11.004;2023-02-10T03:17:56;-4.80;99.90
9730;DHT22;4904;49.152;11.004;2023-02-10T03:20:24;-4.70;99.90
9730;DHT22;4904;49.152;11.004;2023-02-10T03:22:51;-4.80;99.90
9730;DHT22;4904;49.152;11.004;2023-02-10T03:25:18;-4.70;99.90
9730;DHT22;4904;49.152;11.004;2023-02-10T03:27:47;-4.70;99.90
9730;DHT22;4904;49.152;11.004;2023-02-10T03:30:14;-4.70;99.90
9730;DHT22;4904;49.152;11.004;2023-02-10T03:32:40;-4.70;99.90
9730;DHT22;4904;49.152;11.004;2023-02-10T03:35:07;-4.80;99.90
9730;DHT22;4904;49.152;11.004;2023-02-10T03:37:36;-4.80;99.90
9730;DHT22;4904;49.152;11.004;2023-02-10T03:40:03;-4.80;99.90
9730;DHT22;4904;49.152;11.004;2023-02-10T03:42:30;-4.80;99.90
9730;DHT22;4904;49.152;11.004;2023-02-10T03:44:57;-4.90;99.90
9730;DHT22;4904;49.152;11.004;2023-02-10T03:47:24;-4.90;99.90
9730;DHT22;4904;49.152;11.004;2023-02-10T03:49:50;-4.80;99.90
9730;DHT22;4904;49.152;11.004;2023-02-10T03:52:17;-4.80;99.90
9730;DHT22;4904;49.152;11.004;2023-02-10T03:54:46;-4.80;99.90
9730;DHT22;4904;49.152;11.004;2023-02-10T03:57:13;-4.80;99.90
9730;DHT22;4904;49.152;11.004;2023-02-10T03:59:39;-4.80;99.90
9730;DHT22;4904;49.152;11.004;2023-02-10T04:02:06;-4.80;99.90
9730;DHT22;4904;49.152;11.004;2023-02-10T04:04:33;-4.90;99.90
9730;DHT22;4904;49.152;11.004;2023-02-10T04:07:01;-4.90;99.90
9730;DHT22;4904;49.152;11.004;2023-02-10T04:09:28;-4.90;99.90
9730;DHT22;4904;49.152;11.004;2023-02-10T04:11:57;-4.90;99.90
9730;DHT22;4904;49.152;11.004;2023-02-10T04:14:24;-4.90;99.90
9730;DHT22;4904;49.152;11.004;2023-02-10T04:16:50;-4.90;99.90
9730;DHT22;4904;49.152;11.004;2023-02-10T04:19:17;-4.90;99.90
9730;DHT22;4904;49.152;11.004;2023-02-10T04:21:44;-4.90;99.90
9730;DHT22;4904;49.152;11.004;2023-02-10T04:24:11;-4.90;99.90
9730;DHT22;4904;49.152;11.004;2023-02-10T04:26:38;-4.80;99.90
9730;DHT22;4904;49.152;11.004;2023-02-10T04:29:06;-4.80;99.90
9730;DHT22;4904;49.152;11.004;2023-02-10T04:31:33;-4.80;99.90
9730;DHT22;4904;49.152;11.004;2023-02-10T04:34:00;-4.80;99.90
9730;DHT22;4904;49.152;11.004;2023-02-10T04:36:27;-4.80;99.90
9730;DHT22;4904;49.152;11.004;2023-02-10T04:38:54;-4.80;99.90
9730;DHT22;4904;49.152;11.004;2023-02-10T04:41:21;-4.80;99.90
9730;DHT22;4904;49.152;11.004;2023-02-10T04:43:48;-4.80;99.90
9730;DHT22;4904;49.152;11.004;2023-02-10T04:46:16;-4.80;99.90
9730;DHT22;4904;49.152;11.004;2023-02-10T04:48:43;-4.80;99.90
9730;DHT22;4904;49.152;11.004;2023-02-10T04:51:11;-4.70;99.90
9730;DHT22;4904;49.152;11.004;2023-02-10T04:53:40;-4.70;99.90
9730;DHT22;4904;49.152;11.004;2023-02-10T04:56:09;-4.80;99.90
9730;DHT22;4904;49.152;11.004;2023-02-10T04:58:36;-4.80;99.90
9730;DHT22;4904;49.152;11.004;2023-02-10T05:01:03;-4.80;99.90
9730;DHT22;4904;49.152;11.004;2023-02-10T05:03:31;-4.80;99.90
9730;DHT22;4904;49.152;11.004;2023-02-10T05:05:58;-4.70;99.90
9730;DHT22;4904;49.152;11.004;2023-02-10T05:08:25;-4.80;99.90
9730;DHT22;4904;49.152;11.004;2023-02-10T05:10:53;-4.90;99.90
9730;DHT22;4904;49.152;11.004;2023-02-10T05:13:20;-4.80;99.90
9730;DHT22;4904;49.152;11.004;2023-02-10T05:15:47;-4.80;99.90
9730;DHT22;4904;49.152;11.004;2023-02-10T05:18:14;-4.80;99.90
9730;DHT22;4904;49.152;11.004;2023-02-10T05:20:42;-4.80;99.90
9730;DHT22;4904;49.152;11.004;2023-02-10T05:23:09;-4.80;99.90
9730;DHT22;4904;49.152;11.004;2023-02-10T05:25:36;-4.90;99.90
9730;DHT22;4904;49.152;11.004;2023-02-10T05:28:03;-5.00;99.90
9730;DHT22;4904;49.152;11.004;2023-02-10T05:30:30;-5.10;99.90
9730;DHT22;4904;49.152;11.004;2023-02-10T05:32:57;-5.00;99.90
9730;DHT22;4904;49.152;11.004;2023-02-10T05:35:23;-5.10;99.90
9730;DHT22;4904;49.152;11.004;2023-02-10T05:37:52;-4.80;99.90
9730;DHT22;4904;49.152;11.004;2023-02-10T05:40:19;-5.20;99.90
9730;DHT22;4904;49.152;11.004;2023-02-10T05:42:45;-5.20;99.90
9730;DHT22;4904;49.152;11.004;2023-02-10T05:45:12;-5.20;99.90
9730;DHT22;4904;49.152;11.004;2023-02-10T05:47:39;-5.10;99.90
9730;DHT22;4904;49.152;11.004;2023-02-10T05:50:06;-5.10;99.90
9730;DHT22;4904;49.152;11.004;2023-02-10T05:52:33;-5.20;99.90
9730;DHT22;4904;49.152;11.004;2023-02-10T05:55:02;-5.10;99.90
9730;DHT22;4904;49.152;11.004;2023-02-10T05:57:29;-5.10;99.90
9730;DHT22;4904;49.152;11.004;2023-02-10T05:59:56;-5.10;99.90
9730;DHT22;4904;49.152;11.004;2023-02-10T06:02:23;-5.20;99.90
9730;DHT22;4904;49.152;11.004;2023-02-10T06:04:50;-5.10;99.90
9730;DHT22;4904;49.152;11.004;2023-02-10T06:07:17;-5.10;99.90
9730;DHT22;4904;49.152;11.004;2023-02-10T06:09:43;-5.10;99.90
9730;DHT22;4904;49.152;11.004;2023-02-10T06:12:12;-5.10;99.90
9730;DHT22;4904;49.152;11.004;2023-02-10T06:14:39;-5.10;99.90
9730;DHT22;4904;49.152;11.004;2023-02-10T06:17:06;-5.10;99.90
9730;DHT22;4904;49.152;11.004;2023-02-10T06:19:34;-5.00;99.90
9730;DHT22;4904;49.152;11.004;2023-02-10T06:22:02;-5.00;99.90
9730;DHT22;4904;49.152;11.004;2023-02-10T06:24:29;-5.00;99.90
9730;DHT22;4904;49.152;11.004;2023-02-10T06:26:56;-4.90;99.90
9730;DHT22;4904;49.152;11.004;2023-02-10T06:29:24;-5.00;99.90
9730;DHT22;4904;49.152;11.004;2023-02-10T06:31:51;-5.00;99.90
9730;DHT22;4904;49.152;11.004;2023-02-10T06:34:18;-5.10;99.90
9730;DHT22;4904;49.152;11.004;2023-02-10T06:36:46;-5.30;99.90
9730;DHT22;4904;49.152;11.004;2023-02-10T06:39:13;-5.80;99.90
9730;DHT22;4904;49.152;11.004;2023-02-10T06:41:39;-5.80;99.90
9730;DHT22;4904;49.152;11.004;2023-02-10T06:44:06;-5.80;99.90
9730;DHT22;4904;49.152;11.004;2023-02-10T06:46:35;-5.80;99.90
9730;DHT22;4904;49.152;11.004;2023-02-10T06:49:02;-5.80;99.90
9730;DHT22;4904;49.152;11.004;2023-02-10T06:51:28;-5.60;99.90
9730;DHT22;4904;49.152;11.004;2023-02-10T06:53:55;-5.70;99.90
9730;DHT22;4904;49.152;11.004;2023-02-10T06:56:22;-5.70;99.90
9730;DHT22;4904;49.152;11.004;2023-02-10T06:58:49;-5.50;99.90
9730;DHT22;4904;49.152;11.004;2023-02-10T07:01:17;-5.60;99.90
9730;DHT22;4904;49.152;11.004;2023-02-10T07:03:46;-5.60;99.90
9730;DHT22;4904;49.152;11.004;2023-02-10T07:30:26;-5.00;99.90
9730;DHT22;4904;49.152;11.004;2023-02-10T07:33:27;-4.80;99.90
9730;DHT22;4904;49.152;11.004;2023-02-10T07:42:36;-4.70;99.90
9730;DHT22;4904;49.152;11.004;2023-02-10T07:45:49;-4.60;99.90
9730;DHT22;4904;49.152;11.004;2023-02-10T07:48:30;-4.40;99.90
9730;DHT22;4904;49.152;11.004;2023-02-10T07:50:56;-4.30;99.90
9730;DHT22;4904;49.152;11.004;2023-02-10T07:53:23;-4.20;99.90
9730;DHT22;4904;49.152;11.004;2023-02-10T07:55:51;-4.10;99.90
9730;DHT22;4904;49.152;11.004;2023-02-10T07:58:24;-3.90;99.90
9730;DHT22;4904;49.152;11.004;2023-02-10T08:11:37;-3.60;99.90
9730;DHT22;4904;49.152;11.004;2023-02-10T08:14:21;-3.50;99.90
9730;DHT22;4904;49.152;11.004;2023-02-10T08:39:58;-2.90;99.90
9730;DHT22;4904;49.152;11.004;2023-02-10T08:42:25;-2.10;99.90
9730;DHT22;4904;49.152;11.004;2023-02-10T08:44:53;-2.00;99.90
9730;DHT22;4904;49.152;11.004;2023-02-10T08:47:19;-1.70;99.90
9730;DHT22;4904;49.152;11.004;2023-02-10T08:49:47;-1.70;99.90
9730;DHT22;4904;49.152;11.004;2023-02-10T08:52:14;-1.60;99.90
9730;DHT22;4904;49.152;11.004;2023-02-10T08:54:41;-1.50;99.90
9730;DHT22;4904;49.152;11.004;2023-02-10T08:57:09;-1.30;99.90
9730;DHT22;4904;49.152;11.004;2023-02-10T08:59:36;-1.30;99.90
9730;DHT22;4904;49.152;11.004;2023-02-10T09:02:03;-1.20;99.90
9730;DHT22;4904;49.152;11.004;2023-02-10T09:04:30;-1.10;99.90
9730;DHT22;4904;49.152;11.004;2023-02-10T09:06:58;-0.90;99.90
9730;DHT22;4904;49.152;11.004;2023-02-10T09:09:25;-0.80;99.90
9730;DHT22;4904;49.152;11.004;2023-02-10T09:11:53;-0.70;99.90
9730;DHT22;4904;49.152;11.004;2023-02-10T09:14:22;-0.50;99.90
9730;DHT22;4904;49.152;11.004;2023-02-10T09:16:49;-0.60;99.90
9730;DHT22;4904;49.152;11.004;2023-02-10T09:19:17;-0.60;99.90
9730;DHT22;4904;49.152;11.004;2023-02-10T09:21:45;-0.50;99.90
9730;DHT22;4904;49.152;11.004;2023-02-10T09:24:12;-0.50;99.90
9730;DHT22;4904;49.152;11.004;2023-02-10T09:26:39;-0.40;99.90
9730;DHT22;4904;49.152;11.004;2023-02-10T09:29:06;-0.40;99.90
9730;DHT22;4904;49.152;11.004;2023-02-10T09:31:35;-0.30;99.90
9730;DHT22;4904;49.152;11.004;2023-02-10T09:34:03;-0.30;99.90
9730;DHT22;4904;49.152;11.004;2023-02-10T09:36:30;-0.20;99.90
9730;DHT22;4904;49.152;11.004;2023-02-10T09:38:57;-0.10;99.90
9730;DHT22;4904;49.152;11.004;2023-02-10T09:41:44;-0.10;99.90
9730;DHT22;4904;49.152;11.004;2023-02-10T09:44:16;0.00;99.90
9730;DHT22;4904;49.152;11.004;2023-02-10T09:46:53;0.10;99.90
9730;DHT22;4904;49.152;11.004;2023-02-10T09:52:25;0.20;99.90
9730;DHT22;4904;49.152;11.004;2023-02-10T09:54:55;0.30;99.90
9730;DHT22;4904;49.152;11.004;2023-02-10T09:57:29;0.40;99.90
9730;DHT22;4904;49.152;11.004;2023-02-10T09:59:59;0.40;99.90
9730;DHT22;4904;49.152;11.004;2023-02-10T10:02:32;0.50;99.90
9730;DHT22;4904;49.152;11.004;2023-02-10T10:05:05;0.70;99.90
9730;DHT22;4904;49.152;11.004;2023-02-10T10:07:39;0.60;99.90
9730;DHT22;4904;49.152;11.004;2023-02-10T10:10:14;0.70;99.90
9730;DHT22;4904;49.152;11.004;2023-02-10T10:12:43;0.80;99.90
9730;DHT22;4904;49.152;11.004;2023-02-10T10:15:14;0.90;99.90
9730;DHT22;4904;49.152;11.004;2023-02-10T10:17:54;1.00;99.90
9730;DHT22;4904;49.152;11.004;2023-02-10T10:20:48;1.00;99.90
9730;DHT22;4904;49.152;11.004;2023-02-10T10:23:30;1.10;99.90
9730;DHT22;4904;49.152;11.004;2023-02-10T10:26:16;1.10;99.90
9730;DHT22;4904;49.152;11.004;2023-02-10T10:28:55;1.20;99.90
9730;DHT22;4904;49.152;11.004;2023-02-10T10:31:29;1.30;99.90
9730;DHT22;4904;49.152;11.004;2023-02-10T10:34:01;1.40;99.90
9730;DHT22;4904;49.152;11.004;2023-02-10T10:36:32;1.40;99.90
9730;DHT22;4904;49.152;11.004;2023-02-10T10:39:03;1.50;99.90
9730;DHT22;4904;49.152;11.004;2023-02-10T10:41:37;1.60;99.90
9730;DHT22;4904;49.152;11.004;2023-02-10T10:44:05;1.60;99.90
9730;DHT22;4904;49.152;11.004;2023-02-10T10:46:36;1.70;99.90
9730;DHT22;4904;49.152;11.004;2023-02-10T10:49:07;1.70;99.90
9730;DHT22;4904;49.152;11.004;2023-02-10T10:51:34;1.90;99.90
9730;DHT22;4904;49.152;11.004;2023-02-10T10:54:02;2.00;99.90
9730;DHT22;4904;49.152;11.004;2023-02-10T10:56:34;2.00;99.90
9730;DHT22;4904;49.152;11.004;2023-02-10T10:59:04;2.10;99.90
9730;DHT22;4904;49.152;11.004;2023-02-10T11:01:39;2.10;99.90
9730;DHT22;4904;49.152;11.004;2023-02-10T11:04:12;2.10;99.90
9730;DHT22;4904;49.152;11.004;2023-02-10T11:06:40;2.20;99.90
9730;DHT22;4904;49.152;11.004;2023-02-10T11:09:19;2.30;99.90
9730;DHT22;4904;49.152;11.004;2023-02-10T11:11:46;2.40;99.90
9730;DHT22;4904;49.152;11.004;2023-02-10T11:14:15;2.40;99.90
9730;DHT22;4904;49.152;11.004;2023-02-10T11:16:44;2.50;99.90
9730;DHT22;4904;49.152;11.004;2023-02-10T11:19:23;2.50;99.90
9730;DHT22;4904;49.152;11.004;2023-02-10T11:21:50;2.50;99.90
9730;DHT22;4904;49.152;11.004;2023-02-10T11:24:21;2.70;99.90
9730;DHT22;4904;49.152;11.004;2023-02-10T11:26:59;2.60;99.90
9730;DHT22;4904;49.152;11.004;2023-02-10T11:29:28;2.60;99.90
9730;DHT22;4904;49.152;11.004;2023-02-10T11:31:56;2.70;99.90
9730;DHT22;4904;49.152;11.004;2023-02-10T11:34:28;3.10;99.90
9730;DHT22;4904;49.152;11.004;2023-02-10T11:36:57;2.80;99.90
9730;DHT22;4904;49.152;11.004;2023-02-10T11:39:27;3.00;99.90
9730;DHT22;4904;49.152;11.004;2023-02-10T11:41:56;3.00;99.90
9730;DHT22;4904;49.152;11.004;2023-02-10T11:44:27;3.20;99.90
9730;DHT22;4904;49.152;11.004;2023-02-10T11:46:56;3.20;99.90
9730;DHT22;4904;49.152;11.004;2023-02-10T11:49:25;3.20;99.90
9730;DHT22;4904;49.152;11.004;2023-02-10T11:51:57;3.20;99.90
9730;DHT22;4904;49.152;11.004;2023-02-10T11:54:26;3.20;99.90
9730;DHT22;4904;49.152;11.004;2023-02-10T11:57:01;3.30;99.90
9730;DHT22;4904;49.152;11.004;2023-02-10T11:59:52;3.20;99.90
9730;DHT22;4904;49.152;11.004;2023-02-10T12:02:32;3.20;99.90
9730;DHT22;4904;49.152;11.004;2023-02-10T12:05:12;3.40;99.90
9730;DHT22;4904;49.152;11.004;2023-02-10T12:07:51;3.50;99.90
9730;DHT22;4904;49.152;11.004;2023-02-10T12:10:26;3.60;99.90
9730;DHT22;4904;49.152;11.004;2023-02-10T12:13:01;3.70;99.90
9730;DHT22;4904;49.152;11.004;2023-02-10T12:15:38;3.80;99.90
9730;DHT22;4904;49.152;11.004;2023-02-10T12:18:22;3.90;99.90
9730;DHT22;4904;49.152;11.004;2023-02-10T12:21:05;3.80;99.90
9730;DHT22;4904;49.152;11.004;2023-02-10T12:24:02;3.80;99.90
9730;DHT22;4904;49.152;11.004;2023-02-10T12:26:36;4.00;99.90
9730;DHT22;4904;49.152;11.004;2023-02-10T12:29:16;4.10;99.90
9730;DHT22;4904;49.152;11.004;2023-02-10T12:31:53;4.00;99.90
9730;DHT22;4904;49.152;11.004;2023-02-10T12:34:38;3.90;99.90
9730;DHT22;4904;49.152;11.004;2023-02-10T12:37:22;4.10;99.90
9730;DHT22;4904;49.152;11.004;2023-02-10T12:39:57;4.20;99.90
9730;DHT22;4904;49.152;11.004;2023-02-10T12:42:37;4.20;99.90
9730;DHT22;4904;49.152;11.004;2023-02-10T12:45:14;4.30;99.90
9730;DHT22;4904;49.152;11.004;2023-02-10T12:47:48;4.30;99.90
9730;DHT22;4904;49.152;11.004;2023-02-10T12:50:34;4.40;99.90
9730;DHT22;4904;49.152;11.004;2023-02-10T12:53:10;4.50;99.90
9730;DHT22;4904;49.152;11.004;2023-02-10T12:55:44;4.60;99.90
9730;DHT22;4904;49.152;11.004;2023-02-10T12:58:18;4.70;99.90
9730;DHT22;4904;49.152;11.004;2023-02-10T13:00:50;4.70;99.90
9730;DHT22;4904;49.152;11.004;2023-02-10T13:03:21;4.70;99.90
9730;DHT22;4904;49.152;11.004;2023-02-10T13:05:54;4.80;99.90
9730;DHT22;4904;49.152;11.004;2023-02-10T13:08:30;4.90;99.90
9730;DHT22;4904;49.152;11.004;2023-02-10T13:11:02;5.00;99.90
9730;DHT22;4904;49.152;11.004;2023-02-10T13:13:36;5.10;99.90
9730;DHT22;4904;49.152;11.004;2023-02-10T13:16:10;5.30;99.90
9730;DHT22;4904;49.152;11.004;2023-02-10T13:18:45;5.20;99.90
9730;DHT22;4904;49.152;11.004;2023-02-10T13:21:17;5.20;99.90
9730;DHT22;4904;49.152;11.004;2023-02-10T13:23:49;5.20;99.90
9730;DHT22;4904;49.152;11.004;2023-02-10T13:26:37;5.20;99.90
9730;DHT22;4904;49.152;11.004;2023-02-10T13:29:15;5.20;99.90
9730;DHT22;4904;49.152;11.004;2023-02-10T13:31:56;5.30;99.90
9730;DHT22;4904;49.152;11.004;2023-02-10T13:34:26;5.40;99.90
9730;DHT22;4904;49.152;11.004;2023-02-10T13:36:57;5.50;99.90
9730;DHT22;4904;49.152;11.004;2023-02-10T13:39:26;5.50;99.90
9730;DHT22;4904;49.152;11.004;2023-02-10T13:42:08;5.50;99.90
9730;DHT22;4904;49.152;11.004;2023-02-10T13:44:37;5.50;99.90
9730;DHT22;4904;49.152;11.004;2023-02-10T13:47:26;5.50;99.90
9730;DHT22;4904;49.152;11.004;2023-02-10T13:49:56;5.60;99.90
9730;DHT22;4904;49.152;11.004;2023-02-10T13:52:25;5.60;99.90
9730;DHT22;4904;49.152;11.004;2023-02-10T13:54:57;5.80;99.90
9730;DHT22;4904;49.152;11.004;2023-02-10T13:57:27;5.80;99.90
9730;DHT22;4904;49.152;11.004;2023-02-10T14:00:15;5.80;99.90
9730;DHT22;4904;49.152;11.004;2023-02-10T14:02:42;5.80;99.90
9730;DHT22;4904;49.152;11.004;2023-02-10T14:05:22;5.90;99.90
9730;DHT22;4904;49.152;11.004;2023-02-10T14:07:50;5.90;99.90
9730;DHT22;4904;49.152;11.004;2023-02-10T14:10:31;5.90;99.90
9730;DHT22;4904;49.152;11.004;2023-02-10T14:13:01;6.00;99.90
9730;DHT22;4904;49.152;11.004;2023-02-10T14:15:31;6.00;99.90
9730;DHT22;4904;49.152;11.004;2023-02-10T14:18:01;6.20;99.90
9730;DHT22;4904;49.152;11.004;2023-02-10T14:20:35;6.40;99.90
9730;DHT22;4904;49.152;11.004;2023-02-10T14:23:04;6.60;99.90
9730;DHT22;4904;49.152;11.004;2023-02-10T14:25:38;6.70;99.90
9730;DHT22;4904;49.152;11.004;2023-02-10T14:28:19;6.70;99.90
9730;DHT22;4904;49.152;11.004;2023-02-10T14:30:51;6.60;99.90
9730;DHT22;4904;49.152;11.004;2023-02-10T14:33:24;6.70;99.90
9730;DHT22;4904;49.152;11.004;2023-02-10T14:35:54;6.90;99.90
9730;DHT22;4904;49.152;11.004;2023-02-10T14:38:24;6.60;99.90
9730;DHT22;4904;49.152;11.004;2023-02-10T14:40:53;6.30;99.90
9730;DHT22;4904;49.152;11.004;2023-02-10T14:43:25;6.30;99.90
9730;DHT22;4904;49.152;11.004;2023-02-10T14:45:53;5.90;99.90
9730;DHT22;4904;49.152;11.004;2023-02-10T14:48:21;6.10;99.90
9730;DHT22;4904;49.152;11.004;2023-02-10T14:51:20;6.30;99.90
9730;DHT22;4904;49.152;11.004;2023-02-10T14:53:47;6.70;99.90
9730;DHT22;4904;49.152;11.004;2023-02-10T14:56:19;6.70;99.90
9730;DHT22;4904;49.152;11.004;2023-02-10T14:58:48;6.40;99.90
9730;DHT22;4904;49.152;11.004;2023-02-10T15:01:19;6.10;99.90
9730;DHT22;4904;49.152;11.004;2023-02-10T15:03:48;6.00;99.90
9730;DHT22;4904;49.152;11.004;2023-02-10T15:06:17;6.40;99.90
9730;DHT22;4904;49.152;11.004;2023-02-10T15:08:48;6.40;99.90
9730;DHT22;4904;49.152;11.004;2023-02-10T15:11:20;6.70;99.90
9730;DHT22;4904;49.152;11.004;2023-02-10T15:14:12;6.70;99.90
9730;DHT22;4904;49.152;11.004;2023-02-10T15:16:45;7.30;99.90
9730;DHT22;4904;49.152;11.004;2023-02-10T15:19:14;7.20;99.90
9730;DHT22;4904;49.152;11.004;2023-02-10T15:21:42;6.50;99.90
9730;DHT22;4904;49.152;11.004;2023-02-10T15:24:18;6.50;99.90
9730;DHT22;4904;49.152;11.004;2023-02-10T15:26:47;6.30;99.90
9730;DHT22;4904;49.152;11.004;2023-02-10T15:29:15;6.20;99.90
9730;DHT22;4904;49.152;11.004;2023-02-10T15:31:50;6.10;99.90
9730;DHT22;4904;49.152;11.004;2023-02-10T15:34:21;5.90;99.90
9730;DHT22;4904;49.152;11.004;2023-02-10T15:36:50;5.80;99.90
9730;DHT22;4904;49.152;11.004;2023-02-10T15:39:21;6.10;99.90
9730;DHT22;4904;49.152;11.004;2023-02-10T15:42:06;5.70;99.90
9730;DHT22;4904;49.152;11.004;2023-02-10T15:44:36;5.80;99.90
9730;DHT22;4904;49.152;11.004;2023-02-10T15:47:25;6.20;99.90
9730;DHT22;4904;49.152;11.004;2023-02-10T15:49:55;6.60;99.90
9730;DHT22;4904;49.152;11.004;2023-02-10T15:52:24;7.00;99.90
9730;DHT22;4904;49.152;11.004;2023-02-10T15:54:52;7.30;99.90
9730;DHT22;4904;49.152;11.004;2023-02-10T15:57:23;7.40;99.90
9730;DHT22;4904;49.152;11.004;2023-02-10T15:59:50;7.40;99.90
9730;DHT22;4904;49.152;11.004;2023-02-10T16:02:20;7.20;99.90
9730;DHT22;4904;49.152;11.004;2023-02-10T16:04:50;6.90;99.90
9730;DHT22;4904;49.152;11.004;2023-02-10T16:07:19;6.10;99.90
9730;DHT22;4904;49.152;11.004;2023-02-10T16:09:47;5.90;99.90
9730;DHT22;4904;49.152;11.004;2023-02-10T16:12:14;6.20;99.90
9730;DHT22;4904;49.152;11.004;2023-02-10T16:14:42;6.40;99.90
9730;DHT22;4904;49.152;11.004;2023-02-10T16:17:14;5.90;99.90
9730;DHT22;4904;49.152;11.004;2023-02-10T16:19:43;6.00;99.90
9730;DHT22;4904;49.152;11.004;2023-02-10T16:22:10;5.80;99.90
9730;DHT22;4904;49.152;11.004;2023-02-10T16:24:37;4.90;99.90
9730;DHT22;4904;49.152;11.004;2023-02-10T16:27:04;4.20;99.90
9730;DHT22;4904;49.152;11.004;2023-02-10T16:29:32;4.30;99.90
9730;DHT22;4904;49.152;11.004;2023-02-10T16:32:00;4.00;99.90
9730;DHT22;4904;49.152;11.004;2023-02-10T16:34:27;3.90;99.90
9730;DHT22;4904;49.152;11.004;2023-02-10T16:36:56;4.20;99.90
9730;DHT22;4904;49.152;11.004;2023-02-10T16:39:23;4.30;99.90
9730;DHT22;4904;49.152;11.004;2023-02-10T16:41:52;4.00;99.90
9730;DHT22;4904;49.152;11.004;2023-02-10T16:44:20;3.60;99.90
9730;DHT22;4904;49.152;11.004;2023-02-10T16:46:48;3.60;99.90
9730;DHT22;4904;49.152;11.004;2023-02-10T16:49:17;3.80;99.90
9730;DHT22;4904;49.152;11.004;2023-02-10T16:51:44;3.60;99.90
9730;DHT22;4904;49.152;11.004;2023-02-10T16:54:12;3.00;99.90
9730;DHT22;4904;49.152;11.004;2023-02-10T16:56:40;2.80;99.90
9730;DHT22;4904;49.152;11.004;2023-02-10T16:59:10;3.10;99.90
9730;DHT22;4904;49.152;11.004;2023-02-10T17:01:38;3.00;99.90
9730;DHT22;4904;49.152;11.004;2023-02-10T17:04:05;3.00;99.90
9730;DHT22;4904;49.152;11.004;2023-02-10T17:06:36;3.00;99.90
9730;DHT22;4904;49.152;11.004;2023-02-10T17:09:05;3.10;99.90
9730;DHT22;4904;49.152;11.004;2023-02-10T17:11:32;3.10;99.90
9730;DHT22;4904;49.152;11.004;2023-02-10T17:13:59;3.10;99.90
9730;DHT22;4904;49.152;11.004;2023-02-10T17:16:30;3.10;99.90
9730;DHT22;4904;49.152;11.004;2023-02-10T17:19:00;3.10;99.90
9730;DHT22;4904;49.152;11.004;2023-02-10T17:21:27;3.00;99.90
9730;DHT22;4904;49.152;11.004;2023-02-10T17:23:55;3.00;99.90
9730;DHT22;4904;49.152;11.004;2023-02-10T17:26:22;2.90;99.90
9730;DHT22;4904;49.152;11.004;2023-02-10T17:28:49;2.90;99.90